sensor_id;sensor_type;location;lat;lon;timestamp;P1;durP1;ratioP1;P2;durP2;ratioP2
3447;SDS011;1738;49.500;17.736;2023-07-13T00:02:23;6.40;;;4.33;;
3447;SDS011;1738;49.500;17.736;2023-07-13T00:04:49;10.97;;;4.13;;
3447;SDS011;1738;49.500;17.736;2023-07-13T00:07:15;6.53;;;4.50;;
3447;SDS011;1738;49.500;17.736;2023-07-13T00:09:41;7.47;;;4.33;;
3447;SDS011;1738;49.500;17.736;2023-07-13T00:12:25;6.63;;;4.67;;
3447;SDS011;1738;49.500;17.736;2023-07-13T00:14:32;7.90;;;4.80;;
3447;SDS011;1738;49.500;17.736;2023-07-13T00:16:58;6.00;;;4.40;;
3447;SDS011;1738;49.500;17.736;2023-07-13T00:19:24;5.80;;;4.10;;
3447;SDS011;1738;49.500;17.736;2023-07-13T00:21:50;6.10;;;4.43;;
3447;SDS011;1738;49.500;17.736;2023-07-13T00:24:16;5.00;;;4.20;;
3447;SDS011;1738;49.500;17.736;2023-07-13T00:26:42;6.57;;;4.60;;
3447;SDS011;1738;49.500;17.736;2023-07-13T00:29:10;5.20;;;4.00;;
3447;SDS011;1738;49.500;17.736;2023-07-13T00:31:36;6.60;;;4.30;;
3447;SDS011;1738;49.500;17.736;2023-07-13T00:34:02;6.63;;;4.13;;
3447;SDS011;1738;49.500;17.736;2023-07-13T00:36:29;5.57;;;4.33;;
3447;SDS011;1738;49.500;17.736;2023-07-13T00:38:53;11.60;;;5.10;;
3447;SDS011;1738;49.500;17.736;2023-07-13T00:41:19;5.80;;;3.87;;
3447;SDS011;1738;49.500;17.736;2023-07-13T00:43:45;7.80;;;4.43;;
3447;SDS011;1738;49.500;17.736;2023-07-13T00:46:14;4.93;;;3.70;;
3447;SDS011;1738;49.500;17.736;2023-07-13T00:48:38;8.83;;;4.50;;
3447;SDS011;1738;49.500;17.736;2023-07-13T00:51:03;5.30;;;4.20;;
3447;SDS011;1738;49.500;17.736;2023-07-13T00:53:29;5.57;;;4.03;;
3447;SDS011;1738;49.500;17.736;2023-07-13T00:55:55;7.83;;;4.43;;
3447;SDS011;1738;49.500;17.736;2023-07-13T00:58:21;8.50;;;5.50;;
3447;SDS011;1738;49.500;17.736;2023-07-13T01:00:47;7.23;;;4.30;;
3447;SDS011;1738;49.500;17.736;2023-07-13T01:03:13;5.90;;;4.67;;
3447;SDS011;1738;49.500;17.736;2023-07-13T01:05:39;10.70;;;5.33;;
3447;SDS011;1738;49.500;17.736;2023-07-13T01:08:04;6.50;;;4.50;;
3447;SDS011;1738;49.500;17.736;2023-07-13T01:10:35;7.50;;;4.30;;
3447;SDS011;1738;49.500;17.736;2023-07-13T01:13:05;4.73;;;3.80;;
3447;SDS011;1738;49.500;17.736;2023-07-13T01:18:01;6.20;;;4.70;;
3447;SDS011;1738;49.500;17.736;2023-07-13T01:20:27;6.90;;;5.03;;
3447;SDS011;1738;49.500;17.736;2023-07-13T01:22:53;7.20;;;4.20;;
3447;SDS011;1738;49.500;17.736;2023-07-13T01:25:20;11.17;;;4.77;;
3447;SDS011;1738;49.500;17.736;2023-07-13T01:27:44;6.73;;;4.50;;
3447;SDS011;1738;49.500;17.736;2023-07-13T01:30:10;6.57;;;4.47;;
3447;SDS011;1738;49.500;17.736;2023-07-13T01:32:36;6.20;;;4.50;;
3447;SDS011;1738;49.500;17.736;2023-07-13T01:35:02;6.60;;;4.47;;
3447;SDS011;1738;49.500;17.736;2023-07-13T01:37:29;5.57;;;4.13;;
3447;SDS011;1738;49.500;17.736;2023-07-13T01:39:56;6.33;;;4.07;;
3447;SDS011;1738;49.500;17.736;2023-07-13T01:42:21;6.17;;;4.57;;
3447;SDS011;1738;49.500;17.736;2023-07-13T01:44:47;6.97;;;4.13;;
3447;SDS011;1738;49.500;17.736;2023-07-13T01:47:13;6.40;;;4.77;;
3447;SDS011;1738;49.500;17.736;2023-07-13T01:49:39;7.90;;;5.30;;
3447;SDS011;1738;49.500;17.736;2023-07-13T01:52:05;5.63;;;3.70;;
3447;SDS011;1738;49.500;17.736;2023-07-13T01:54:31;4.90;;;4.10;;
3447;SDS011;1738;49.500;17.736;2023-07-13T01:56:57;4.73;;;3.83;;
3447;SDS011;1738;49.500;17.736;2023-07-13T01:59:22;6.53;;;5.10;;
3447;SDS011;1738;49.500;17.736;2023-07-13T02:01:48;6.03;;;4.63;;
3447;SDS011;1738;49.500;17.736;2023-07-13T02:04:14;5.37;;;4.33;;
3447;SDS011;1738;49.500;17.736;2023-07-13T02:06:40;9.07;;;5.03;;
3447;SDS011;1738;49.500;17.736;2023-07-13T02:09:06;6.37;;;4.60;;
3447;SDS011;1738;49.500;17.736;2023-07-13T02:11:32;8.10;;;4.82;;
3447;SDS011;1738;49.500;17.736;2023-07-13T02:13:59;9.43;;;6.20;;
3447;SDS011;1738;49.500;17.736;2023-07-13T02:16:23;7.07;;;5.23;;
3447;SDS011;1738;49.500;17.736;2023-07-13T02:18:49;9.03;;;5.20;;
3447;SDS011;1738;49.500;17.736;2023-07-13T02:21:15;15.17;;;5.70;;
3447;SDS011;1738;49.500;17.736;2023-07-13T02:23:41;7.27;;;5.10;;
3447;SDS011;1738;49.500;17.736;2023-07-13T02:26:07;10.40;;;5.83;;
3447;SDS011;1738;49.500;17.736;2023-07-13T02:28:33;11.00;;;4.53;;
3447;SDS011;1738;49.500;17.736;2023-07-13T02:31:07;8.37;;;5.20;;
3447;SDS011;1738;49.500;17.736;2023-07-13T02:33:32;8.07;;;4.90;;
3447;SDS011;1738;49.500;17.736;2023-07-13T02:35:58;9.03;;;5.73;;
3447;SDS011;1738;49.500;17.736;2023-07-13T02:38:24;8.13;;;5.30;;
3447;SDS011;1738;49.500;17.736;2023-07-13T02:40:50;9.93;;;5.10;;
3447;SDS011;1738;49.500;17.736;2023-07-13T02:43:15;9.60;;;5.80;;
3447;SDS011;1738;49.500;17.736;2023-07-13T02:45:44;9.00;;;4.83;;
3447;SDS011;1738;49.500;17.736;2023-07-13T02:48:09;6.77;;;4.90;;
3447;SDS011;1738;49.500;17.736;2023-07-13T02:50:35;8.90;;;5.57;;
3447;SDS011;1738;49.500;17.736;2023-07-13T02:53:01;10.43;;;5.10;;
3447;SDS011;1738;49.500;17.736;2023-07-13T02:55:27;10.10;;;5.83;;
3447;SDS011;1738;49.500;17.736;2023-07-13T02:57:52;6.63;;;4.73;;
3447;SDS011;1738;49.500;17.736;2023-07-13T03:00:18;8.40;;;5.10;;
3447;SDS011;1738;49.500;17.736;2023-07-13T03:02:44;10.30;;;5.47;;
3447;SDS011;1738;49.500;17.736;2023-07-13T03:05:10;6.60;;;4.73;;
3447;SDS011;1738;49.500;17.736;2023-07-13T03:07:36;7.03;;;4.90;;
3447;SDS011;1738;49.500;17.736;2023-07-13T03:10:02;10.43;;;4.40;;
3447;SDS011;1738;49.500;17.736;2023-07-13T03:12:28;11.10;;;4.90;;
3447;SDS011;1738;49.500;17.736;2023-07-13T03:14:53;7.62;;;4.72;;
3447;SDS011;1738;49.500;17.736;2023-07-13T03:17:19;6.63;;;4.20;;
3447;SDS011;1738;49.500;17.736;2023-07-13T03:19:45;7.00;;;4.23;;
3447;SDS011;1738;49.500;17.736;2023-07-13T03:22:11;6.67;;;5.40;;
3447;SDS011;1738;49.500;17.736;2023-07-13T03:24:37;7.53;;;4.50;;
3447;SDS011;1738;49.500;17.736;2023-07-13T03:27:04;6.87;;;4.50;;
3447;SDS011;1738;49.500;17.736;2023-07-13T03:29:29;6.17;;;4.40;;
3447;SDS011;1738;49.500;17.736;2023-07-13T03:31:55;6.50;;;4.77;;
3447;SDS011;1738;49.500;17.736;2023-07-13T03:34:21;7.90;;;5.40;;
3447;SDS011;1738;49.500;17.736;2023-07-13T03:36:46;6.17;;;4.90;;
3447;SDS011;1738;49.500;17.736;2023-07-13T03:39:12;8.10;;;4.50;;
3447;SDS011;1738;49.500;17.736;2023-07-13T03:41:38;6.40;;;4.80;;
3447;SDS011;1738;49.500;17.736;2023-07-13T03:44:04;9.40;;;5.20;;
3447;SDS011;1738;49.500;17.736;2023-07-13T03:46:30;10.50;;;5.60;;
3447;SDS011;1738;49.500;17.736;2023-07-13T03:48:56;7.40;;;4.80;;
3447;SDS011;1738;49.500;17.736;2023-07-13T03:51:22;5.30;;;4.30;;
3447;SDS011;1738;49.500;17.736;2023-07-13T03:53:47;7.43;;;4.67;;
3447;SDS011;1738;49.500;17.736;2023-07-13T03:56:14;13.17;;;5.30;;
3447;SDS011;1738;49.500;17.736;2023-07-13T03:58:40;10.00;;;5.43;;
3447;SDS011;1738;49.500;17.736;2023-07-13T04:01:06;6.37;;;4.87;;
3447;SDS011;1738;49.500;17.736;2023-07-13T04:03:32;10.50;;;5.50;;
3447;SDS011;1738;49.500;17.736;2023-07-13T04:05:57;7.23;;;5.00;;
3447;SDS011;1738;49.500;17.736;2023-07-13T04:08:23;7.57;;;4.87;;
3447;SDS011;1738;49.500;17.736;2023-07-13T04:10:49;13.67;;;5.63;;
3447;SDS011;1738;49.500;17.736;2023-07-13T04:13:15;7.20;;;5.27;;
3447;SDS011;1738;49.500;17.736;2023-07-13T04:15:41;8.30;;;4.83;;
3447;SDS011;1738;49.500;17.736;2023-07-13T04:18:06;12.90;;;5.57;;
3447;SDS011;1738;49.500;17.736;2023-07-13T04:20:32;6.57;;;4.70;;
3447;SDS011;1738;49.500;17.736;2023-07-13T04:22:58;8.88;;;5.12;;
3447;SDS011;1738;49.500;17.736;2023-07-13T04:25:24;10.53;;;5.87;;
3447;SDS011;1738;49.500;17.736;2023-07-13T04:27:50;8.00;;;5.67;;
3447;SDS011;1738;49.500;17.736;2023-07-13T04:30:16;8.07;;;5.85;;
3447;SDS011;1738;49.500;17.736;2023-07-13T04:32:42;9.47;;;5.43;;
3447;SDS011;1738;49.500;17.736;2023-07-13T04:35:08;6.50;;;5.53;;
3447;SDS011;1738;49.500;17.736;2023-07-13T04:37:34;9.83;;;5.33;;
3447;SDS011;1738;49.500;17.736;2023-07-13T04:40:00;9.00;;;5.90;;
3447;SDS011;1738;49.500;17.736;2023-07-13T04:42:26;6.70;;;4.90;;
3447;SDS011;1738;49.500;17.736;2023-07-13T04:44:52;10.17;;;5.50;;
3447;SDS011;1738;49.500;17.736;2023-07-13T04:47:18;8.20;;;5.40;;
3447;SDS011;1738;49.500;17.736;2023-07-13T04:49:43;9.30;;;5.87;;
3447;SDS011;1738;49.500;17.736;2023-07-13T04:52:09;15.10;;;5.13;;
3447;SDS011;1738;49.500;17.736;2023-07-13T04:54:35;8.10;;;4.53;;
3447;SDS011;1738;49.500;17.736;2023-07-13T04:57:01;9.47;;;5.10;;
3447;SDS011;1738;49.500;17.736;2023-07-13T04:59:26;8.47;;;6.07;;
3447;SDS011;1738;49.500;17.736;2023-07-13T05:01:53;6.80;;;5.50;;
3447;SDS011;1738;49.500;17.736;2023-07-13T05:04:18;7.30;;;5.50;;
3447;SDS011;1738;49.500;17.736;2023-07-13T05:06:44;7.30;;;5.10;;
3447;SDS011;1738;49.500;17.736;2023-07-13T05:09:10;8.20;;;5.90;;
3447;SDS011;1738;49.500;17.736;2023-07-13T05:11:36;7.60;;;4.93;;
3447;SDS011;1738;49.500;17.736;2023-07-13T05:14:02;7.15;;;5.65;;
3447;SDS011;1738;49.500;17.736;2023-07-13T05:16:27;10.90;;;5.50;;
3447;SDS011;1738;49.500;17.736;2023-07-13T05:18:53;9.43;;;5.53;;
3447;SDS011;1738;49.500;17.736;2023-07-13T05:21:19;8.17;;;5.30;;
3447;SDS011;1738;49.500;17.736;2023-07-13T05:23:45;6.40;;;4.63;;
3447;SDS011;1738;49.500;17.736;2023-07-13T05:26:11;14.33;;;4.90;;
3447;SDS011;1738;49.500;17.736;2023-07-13T05:28:37;6.40;;;5.27;;
3447;SDS011;1738;49.500;17.736;2023-07-13T05:31:02;7.70;;;4.93;;
3447;SDS011;1738;49.500;17.736;2023-07-13T05:33:28;8.70;;;5.47;;
3447;SDS011;1738;49.500;17.736;2023-07-13T05:35:54;8.40;;;5.60;;
3447;SDS011;1738;49.500;17.736;2023-07-13T05:38:20;7.13;;;4.47;;
3447;SDS011;1738;49.500;17.736;2023-07-13T05:40:46;7.70;;;5.00;;
3447;SDS011;1738;49.500;17.736;2023-07-13T05:43:12;7.50;;;4.77;;
3447;SDS011;1738;49.500;17.736;2023-07-13T05:45:38;8.43;;;5.87;;
3447;SDS011;1738;49.500;17.736;2023-07-13T05:48:03;8.07;;;5.67;;
3447;SDS011;1738;49.500;17.736;2023-07-13T05:50:29;12.23;;;5.80;;
3447;SDS011;1738;49.500;17.736;2023-07-13T05:52:55;6.93;;;5.30;;
3447;SDS011;1738;49.500;17.736;2023-07-13T05:55:21;11.60;;;5.03;;
3447;SDS011;1738;49.500;17.736;2023-07-13T05:57:47;10.80;;;5.70;;
3447;SDS011;1738;49.500;17.736;2023-07-13T06:00:13;6.97;;;5.23;;
3447;SDS011;1738;49.500;17.736;2023-07-13T06:02:39;7.20;;;5.37;;
3447;SDS011;1738;49.500;17.736;2023-07-13T06:05:05;7.37;;;6.00;;
3447;SDS011;1738;49.500;17.736;2023-07-13T06:07:31;8.13;;;5.30;;
3447;SDS011;1738;49.500;17.736;2023-07-13T06:09:57;6.53;;;5.27;;
3447;SDS011;1738;49.500;17.736;2023-07-13T06:12:23;6.87;;;4.87;;
3447;SDS011;1738;49.500;17.736;2023-07-13T06:14:48;11.43;;;5.73;;
3447;SDS011;1738;49.500;17.736;2023-07-13T06:17:14;6.83;;;4.37;;
3447;SDS011;1738;49.500;17.736;2023-07-13T06:19:40;7.20;;;5.30;;
3447;SDS011;1738;49.500;17.736;2023-07-13T06:22:06;10.87;;;6.00;;
3447;SDS011;1738;49.500;17.736;2023-07-13T06:24:32;9.73;;;5.77;;
3447;SDS011;1738;49.500;17.736;2023-07-13T06:26:58;8.70;;;5.80;;
3447;SDS011;1738;49.500;17.736;2023-07-13T06:29:23;10.13;;;5.63;;
3447;SDS011;1738;49.500;17.736;2023-07-13T06:31:49;18.08;;;6.35;;
3447;SDS011;1738;49.500;17.736;2023-07-13T06:34:15;9.27;;;4.93;;
3447;SDS011;1738;49.500;17.736;2023-07-13T06:36:41;6.53;;;4.90;;
3447;SDS011;1738;49.500;17.736;2023-07-13T06:39:07;6.40;;;4.67;;
3447;SDS011;1738;49.500;17.736;2023-07-13T06:41:33;6.03;;;4.60;;
3447;SDS011;1738;49.500;17.736;2023-07-13T06:43:58;8.73;;;5.03;;
3447;SDS011;1738;49.500;17.736;2023-07-13T06:46:24;6.70;;;5.10;;
3447;SDS011;1738;49.500;17.736;2023-07-13T06:48:50;8.13;;;4.83;;
3447;SDS011;1738;49.500;17.736;2023-07-13T06:51:16;6.80;;;4.73;;
3447;SDS011;1738;49.500;17.736;2023-07-13T06:53:42;9.40;;;4.73;;
3447;SDS011;1738;49.500;17.736;2023-07-13T06:56:08;7.33;;;4.60;;
3447;SDS011;1738;49.500;17.736;2023-07-13T06:58:34;6.57;;;4.40;;
3447;SDS011;1738;49.500;17.736;2023-07-13T07:00:59;6.13;;;4.70;;
3447;SDS011;1738;49.500;17.736;2023-07-13T07:03:25;6.30;;;4.93;;
3447;SDS011;1738;49.500;17.736;2023-07-13T07:05:51;9.30;;;4.43;;
3447;SDS011;1738;49.500;17.736;2023-07-13T07:08:17;20.50;;;4.57;;
3447;SDS011;1738;49.500;17.736;2023-07-13T07:10:43;6.90;;;4.77;;
3447;SDS011;1738;49.500;17.736;2023-07-13T07:13:08;7.63;;;4.87;;
3447;SDS011;1738;49.500;17.736;2023-07-13T07:15:35;5.83;;;4.30;;
3447;SDS011;1738;49.500;17.736;2023-07-13T07:18:00;6.77;;;4.50;;
3447;SDS011;1738;49.500;17.736;2023-07-13T07:20:26;7.33;;;4.87;;
3447;SDS011;1738;49.500;17.736;2023-07-13T07:22:52;6.47;;;4.60;;
3447;SDS011;1738;49.500;17.736;2023-07-13T07:25:18;8.40;;;4.80;;
3447;SDS011;1738;49.500;17.736;2023-07-13T07:27:44;6.67;;;4.77;;
3447;SDS011;1738;49.500;17.736;2023-07-13T07:30:10;7.47;;;4.45;;
3447;SDS011;1738;49.500;17.736;2023-07-13T07:32:36;11.37;;;5.00;;
3447;SDS011;1738;49.500;17.736;2023-07-13T07:35:01;6.10;;;4.90;;
3447;SDS011;1738;49.500;17.736;2023-07-13T07:37:27;6.60;;;5.23;;
3447;SDS011;1738;49.500;17.736;2023-07-13T07:39:53;13.00;;;5.33;;
3447;SDS011;1738;49.500;17.736;2023-07-13T07:42:19;12.23;;;5.43;;
3447;SDS011;1738;49.500;17.736;2023-07-13T07:44:45;5.90;;;4.97;;
3447;SDS011;1738;49.500;17.736;2023-07-13T07:47:11;8.30;;;4.50;;
3447;SDS011;1738;49.500;17.736;2023-07-13T07:49:37;12.80;;;4.97;;
3447;SDS011;1738;49.500;17.736;2023-07-13T07:52:04;7.10;;;4.80;;
3447;SDS011;1738;49.500;17.736;2023-07-13T07:54:30;5.70;;;5.10;;
3447;SDS011;1738;49.500;17.736;2023-07-13T07:56:56;13.43;;;5.83;;
3447;SDS011;1738;49.500;17.736;2023-07-13T07:59:21;7.57;;;5.00;;
3447;SDS011;1738;49.500;17.736;2023-07-13T08:01:47;6.53;;;4.97;;
3447;SDS011;1738;49.500;17.736;2023-07-13T08:04:13;11.07;;;4.80;;
3447;SDS011;1738;49.500;17.736;2023-07-13T08:06:39;5.87;;;4.60;;
3447;SDS011;1738;49.500;17.736;2023-07-13T08:09:05;6.07;;;4.40;;
3447;SDS011;1738;49.500;17.736;2023-07-13T08:11:31;16.13;;;4.77;;
3447;SDS011;1738;49.500;17.736;2023-07-13T08:13:57;6.70;;;4.50;;
3447;SDS011;1738;49.500;17.736;2023-07-13T08:16:23;8.30;;;5.27;;
3447;SDS011;1738;49.500;17.736;2023-07-13T08:18:48;9.00;;;5.53;;
3447;SDS011;1738;49.500;17.736;2023-07-13T08:21:14;10.90;;;5.97;;
3447;SDS011;1738;49.500;17.736;2023-07-13T08:23:40;10.23;;;5.13;;
3447;SDS011;1738;49.500;17.736;2023-07-13T08:26:06;7.70;;;5.43;;
3447;SDS011;1738;49.500;17.736;2023-07-13T08:28:32;7.47;;;5.63;;
3447;SDS011;1738;49.500;17.736;2023-07-13T08:31:02;7.80;;;5.83;;
3447;SDS011;1738;49.500;17.736;2023-07-13T08:33:27;8.70;;;5.63;;
3447;SDS011;1738;49.500;17.736;2023-07-13T08:35:53;8.57;;;5.13;;
3447;SDS011;1738;49.500;17.736;2023-07-13T08:38:19;14.40;;;6.37;;
3447;SDS011;1738;49.500;17.736;2023-07-13T08:40:48;7.97;;;5.90;;
3447;SDS011;1738;49.500;17.736;2023-07-13T08:43:15;9.00;;;6.30;;
3447;SDS011;1738;49.500;17.736;2023-07-13T08:45:44;13.80;;;6.00;;
3447;SDS011;1738;49.500;17.736;2023-07-13T08:48:11;11.80;;;6.73;;
3447;SDS011;1738;49.500;17.736;2023-07-13T08:50:35;11.47;;;7.23;;
3447;SDS011;1738;49.500;17.736;2023-07-13T08:53:01;12.53;;;7.13;;
3447;SDS011;1738;49.500;17.736;2023-07-13T08:55:28;10.80;;;6.77;;
3447;SDS011;1738;49.500;17.736;2023-07-13T08:57:54;11.77;;;6.60;;
3447;SDS011;1738;49.500;17.736;2023-07-13T09:00:19;8.53;;;6.17;;
3447;SDS011;1738;49.500;17.736;2023-07-13T09:02:46;8.77;;;6.50;;
3447;SDS011;1738;49.500;17.736;2023-07-13T09:05:14;8.30;;;6.60;;
3447;SDS011;1738;49.500;17.736;2023-07-13T09:08:04;15.27;;;9.23;;
3447;SDS011;1738;49.500;17.736;2023-07-13T09:10:13;10.37;;;7.10;;
3447;SDS011;1738;49.500;17.736;2023-07-13T09:12:39;11.53;;;7.20;;
3447;SDS011;1738;49.500;17.736;2023-07-13T09:15:02;9.13;;;7.20;;
3447;SDS011;1738;49.500;17.736;2023-07-13T09:17:29;8.73;;;6.93;;
3447;SDS011;1738;49.500;17.736;2023-07-13T09:19:57;8.90;;;7.80;;
3447;SDS011;1738;49.500;17.736;2023-07-13T09:22:19;11.87;;;7.20;;
3447;SDS011;1738;49.500;17.736;2023-07-13T09:24:50;11.83;;;8.03;;
3447;SDS011;1738;49.500;17.736;2023-07-13T09:27:15;12.67;;;7.97;;
3447;SDS011;1738;49.500;17.736;2023-07-13T09:29:40;11.83;;;6.73;;
3447;SDS011;1738;49.500;17.736;2023-07-13T09:32:06;10.77;;;7.73;;
3447;SDS011;1738;49.500;17.736;2023-07-13T09:34:32;10.10;;;7.90;;
3447;SDS011;1738;49.500;17.736;2023-07-13T09:36:57;14.57;;;8.83;;
3447;SDS011;1738;49.500;17.736;2023-07-13T09:39:27;11.27;;;9.40;;
3447;SDS011;1738;49.500;17.736;2023-07-13T09:41:55;11.00;;;8.93;;
3447;SDS011;1738;49.500;17.736;2023-07-13T09:46:52;8.10;;;5.63;;
3447;SDS011;1738;49.500;17.736;2023-07-13T09:49:18;5.63;;;5.03;;
3447;SDS011;1738;49.500;17.736;2023-07-13T09:51:44;11.20;;;6.93;;
3447;SDS011;1738;49.500;17.736;2023-07-13T09:56:41;5.10;;;4.43;;
3447;SDS011;1738;49.500;17.736;2023-07-13T09:59:17;7.27;;;4.53;;
3447;SDS011;1738;49.500;17.736;2023-07-13T10:01:35;10.17;;;6.93;;
3447;SDS011;1738;49.500;17.736;2023-07-13T10:03:59;6.00;;;4.10;;
3447;SDS011;1738;49.500;17.736;2023-07-13T10:06:25;5.00;;;3.30;;
3447;SDS011;1738;49.500;17.736;2023-07-13T10:08:52;5.00;;;3.90;;
3447;SDS011;1738;49.500;17.736;2023-07-13T10:11:20;5.47;;;3.70;;
3447;SDS011;1738;49.500;17.736;2023-07-13T10:13:50;9.10;;;4.00;;
3447;SDS011;1738;49.500;17.736;2023-07-13T10:16:10;6.13;;;4.50;;
3447;SDS011;1738;49.500;17.736;2023-07-13T10:21:19;8.37;;;5.13;;
3447;SDS011;1738;49.500;17.736;2023-07-13T10:23:45;7.40;;;6.17;;
3447;SDS011;1738;49.500;17.736;2023-07-13T10:26:12;4.43;;;3.70;;
3447;SDS011;1738;49.500;17.736;2023-07-13T10:28:37;5.40;;;4.77;;
3447;SDS011;1738;49.500;17.736;2023-07-13T10:31:01;3.97;;;2.77;;
3447;SDS011;1738;49.500;17.736;2023-07-13T10:33:27;3.80;;;2.73;;
3447;SDS011;1738;49.500;17.736;2023-07-13T10:35:55;4.03;;;2.67;;
3447;SDS011;1738;49.500;17.736;2023-07-13T10:38:20;4.40;;;2.47;;
3447;SDS011;1738;49.500;17.736;2023-07-13T10:40:46;4.90;;;2.50;;
3447;SDS011;1738;49.500;17.736;2023-07-13T10:43:27;4.37;;;2.77;;
3447;SDS011;1738;49.500;17.736;2023-07-13T10:45:51;4.00;;;2.70;;
3447;SDS011;1738;49.500;17.736;2023-07-13T10:48:17;11.30;;;2.70;;
3447;SDS011;1738;49.500;17.736;2023-07-13T10:50:44;3.27;;;2.43;;
3447;SDS011;1738;49.500;17.736;2023-07-13T10:55:54;7.03;;;2.60;;
3447;SDS011;1738;49.500;17.736;2023-07-13T10:58:13;4.60;;;2.50;;
3447;SDS011;1738;49.500;17.736;2023-07-13T11:00:43;5.50;;;2.80;;
3447;SDS011;1738;49.500;17.736;2023-07-13T11:03:10;4.80;;;2.20;;
3447;SDS011;1738;49.500;17.736;2023-07-13T11:05:35;7.03;;;5.33;;
3447;SDS011;1738;49.500;17.736;2023-07-13T11:08:03;4.20;;;3.03;;
3447;SDS011;1738;49.500;17.736;2023-07-13T11:10:46;3.60;;;2.00;;
3447;SDS011;1738;49.500;17.736;2023-07-13T11:13:00;3.33;;;2.30;;
3447;SDS011;1738;49.500;17.736;2023-07-13T11:15:27;3.77;;;2.80;;
3447;SDS011;1738;49.500;17.736;2023-07-13T11:17:54;5.27;;;3.27;;
3447;SDS011;1738;49.500;17.736;2023-07-13T11:20:20;3.93;;;3.10;;
3447;SDS011;1738;49.500;17.736;2023-07-13T11:22:45;3.63;;;2.43;;
3447;SDS011;1738;49.500;17.736;2023-07-13T11:27:42;3.57;;;2.00;;
3447;SDS011;1738;49.500;17.736;2023-07-13T11:32:39;5.27;;;2.13;;
3447;SDS011;1738;49.500;17.736;2023-07-13T11:35:08;15.10;;;13.50;;
3447;SDS011;1738;49.500;17.736;2023-07-13T11:37:31;3.20;;;2.20;;
3447;SDS011;1738;49.500;17.736;2023-07-13T11:39:57;4.83;;;2.73;;
3447;SDS011;1738;49.500;17.736;2023-07-13T11:42:23;4.90;;;3.00;;
3447;SDS011;1738;49.500;17.736;2023-07-13T11:44:49;4.07;;;2.70;;
3447;SDS011;1738;49.500;17.736;2023-07-13T11:47:17;3.90;;;2.77;;
3447;SDS011;1738;49.500;17.736;2023-07-13T11:49:44;5.17;;;2.83;;
3447;SDS011;1738;49.500;17.736;2023-07-13T11:52:13;3.40;;;2.40;;
3447;SDS011;1738;49.500;17.736;2023-07-13T11:54:46;4.10;;;2.87;;
3447;SDS011;1738;49.500;17.736;2023-07-13T11:59:40;3.30;;;2.33;;
3447;SDS011;1738;49.500;17.736;2023-07-13T12:02:13;3.37;;;2.30;;
3447;SDS011;1738;49.500;17.736;2023-07-13T12:04:34;3.30;;;2.30;;
3447;SDS011;1738;49.500;17.736;2023-07-13T12:07:03;3.60;;;2.40;;
3447;SDS011;1738;49.500;17.736;2023-07-13T12:09:28;3.20;;;2.13;;
3447;SDS011;1738;49.500;17.736;2023-07-13T12:11:56;7.43;;;2.53;;
3447;SDS011;1738;49.500;17.736;2023-07-13T12:14:20;2.50;;;1.50;;
3447;SDS011;1738;49.500;17.736;2023-07-13T12:16:46;3.97;;;3.30;;
3447;SDS011;1738;49.500;17.736;2023-07-13T12:19:27;3.23;;;2.20;;
3447;SDS011;1738;49.500;17.736;2023-07-13T12:21:53;4.37;;;2.10;;
3447;SDS011;1738;49.500;17.736;2023-07-13T12:24:19;3.50;;;2.47;;
3447;SDS011;1738;49.500;17.736;2023-07-13T12:26:44;3.33;;;2.00;;
3447;SDS011;1738;49.500;17.736;2023-07-13T12:29:11;5.60;;;2.50;;
3447;SDS011;1738;49.500;17.736;2023-07-13T12:31:37;4.23;;;2.27;;
3447;SDS011;1738;49.500;17.736;2023-07-13T12:34:06;3.37;;;1.80;;
3447;SDS011;1738;49.500;17.736;2023-07-13T12:36:30;4.33;;;2.07;;
3447;SDS011;1738;49.500;17.736;2023-07-13T12:38:56;4.43;;;2.40;;
3447;SDS011;1738;49.500;17.736;2023-07-13T12:41:21;3.20;;;2.07;;
3447;SDS011;1738;49.500;17.736;2023-07-13T12:43:47;3.37;;;2.13;;
3447;SDS011;1738;49.500;17.736;2023-07-13T12:46:18;2.80;;;1.83;;
3447;SDS011;1738;49.500;17.736;2023-07-13T12:48:42;3.53;;;2.33;;
3447;SDS011;1738;49.500;17.736;2023-07-13T12:51:10;5.57;;;2.50;;
3447;SDS011;1738;49.500;17.736;2023-07-13T12:53:35;4.00;;;2.30;;
3447;SDS011;1738;49.500;17.736;2023-07-13T12:56:02;3.80;;;2.40;;
3447;SDS011;1738;49.500;17.736;2023-07-13T12:58:28;3.90;;;2.30;;
3447;SDS011;1738;49.500;17.736;2023-07-13T13:00:54;3.33;;;2.47;;
3447;SDS011;1738;49.500;17.736;2023-07-13T13:03:22;3.67;;;2.30;;
3447;SDS011;1738;49.500;17.736;2023-07-13T13:05:47;4.60;;;2.17;;
3447;SDS011;1738;49.500;17.736;2023-07-13T13:08:13;7.20;;;1.93;;
3447;SDS011;1738;49.500;17.736;2023-07-13T13:10:38;4.60;;;2.00;;
3447;SDS011;1738;49.500;17.736;2023-07-13T13:13:04;3.40;;;2.03;;
3447;SDS011;1738;49.500;17.736;2023-07-13T13:15:30;3.77;;;1.80;;
3447;SDS011;1738;49.500;17.736;2023-07-13T13:17:56;6.47;;;2.53;;
3447;SDS011;1738;49.500;17.736;2023-07-13T13:20:22;4.00;;;2.23;;
3447;SDS011;1738;49.500;17.736;2023-07-13T13:22:48;4.73;;;2.40;;
3447;SDS011;1738;49.500;17.736;2023-07-13T13:25:17;3.80;;;2.23;;
3447;SDS011;1738;49.500;17.736;2023-07-13T13:27:43;3.07;;;2.27;;
3447;SDS011;1738;49.500;17.736;2023-07-13T13:30:11;8.43;;;3.20;;
3447;SDS011;1738;49.500;17.736;2023-07-13T13:32:37;4.00;;;2.10;;
3447;SDS011;1738;49.500;17.736;2023-07-13T13:35:02;3.67;;;2.17;;
3447;SDS011;1738;49.500;17.736;2023-07-13T13:37:28;3.30;;;2.10;;
3447;SDS011;1738;49.500;17.736;2023-07-13T13:39:54;2.73;;;1.80;;
3447;SDS011;1738;49.500;17.736;2023-07-13T13:42:20;3.13;;;2.23;;
3447;SDS011;1738;49.500;17.736;2023-07-13T13:44:46;2.90;;;1.83;;
3447;SDS011;1738;49.500;17.736;2023-07-13T13:47:29;3.10;;;1.90;;
3447;SDS011;1738;49.500;17.736;2023-07-13T13:49:48;5.00;;;2.57;;
3447;SDS011;1738;49.500;17.736;2023-07-13T13:52:14;5.73;;;2.30;;
3447;SDS011;1738;49.500;17.736;2023-07-13T13:54:40;3.23;;;2.27;;
3447;SDS011;1738;49.500;17.736;2023-07-13T13:57:08;5.10;;;2.60;;
3447;SDS011;1738;49.500;17.736;2023-07-13T13:59:32;3.70;;;2.70;;
3447;SDS011;1738;49.500;17.736;2023-07-13T14:01:58;4.60;;;2.70;;
3447;SDS011;1738;49.500;17.736;2023-07-13T14:04:24;5.00;;;2.50;;
3447;SDS011;1738;49.500;17.736;2023-07-13T14:06:49;4.43;;;2.43;;
3447;SDS011;1738;49.500;17.736;2023-07-13T14:09:16;6.00;;;2.87;;
3447;SDS011;1738;49.500;17.736;2023-07-13T14:11:42;3.15;;;2.33;;
3447;SDS011;1738;49.500;17.736;2023-07-13T14:14:09;3.33;;;2.40;;
3447;SDS011;1738;49.500;17.736;2023-07-13T14:16:34;3.67;;;2.80;;
3447;SDS011;1738;49.500;17.736;2023-07-13T14:19:00;3.60;;;2.63;;
3447;SDS011;1738;49.500;17.736;2023-07-13T14:21:26;6.93;;;2.83;;
3447;SDS011;1738;49.500;17.736;2023-07-13T14:23:51;4.17;;;2.33;;
3447;SDS011;1738;49.500;17.736;2023-07-13T14:26:18;3.17;;;2.20;;
3447;SDS011;1738;49.500;17.736;2023-07-13T14:28:44;5.17;;;3.00;;
3447;SDS011;1738;49.500;17.736;2023-07-13T14:31:11;4.33;;;2.83;;
3447;SDS011;1738;49.500;17.736;2023-07-13T14:33:34;10.80;;;2.40;;
3447;SDS011;1738;49.500;17.736;2023-07-13T14:36:01;4.87;;;3.53;;
3447;SDS011;1738;49.500;17.736;2023-07-13T14:38:26;3.70;;;2.70;;
3447;SDS011;1738;49.500;17.736;2023-07-13T14:40:52;4.47;;;2.97;;
3447;SDS011;1738;49.500;17.736;2023-07-13T14:43:18;5.47;;;3.30;;
3447;SDS011;1738;49.500;17.736;2023-07-13T14:45:45;5.87;;;2.53;;
3447;SDS011;1738;49.500;17.736;2023-07-13T14:48:13;7.60;;;2.63;;
3447;SDS011;1738;49.500;17.736;2023-07-13T14:50:35;3.50;;;2.27;;
3447;SDS011;1738;49.500;17.736;2023-07-13T14:53:01;4.53;;;3.03;;
3447;SDS011;1738;49.500;17.736;2023-07-13T14:55:27;6.50;;;4.40;;
3447;SDS011;1738;49.500;17.736;2023-07-13T14:57:53;3.20;;;2.03;;
3447;SDS011;1738;49.500;17.736;2023-07-13T15:00:20;3.10;;;2.33;;
3447;SDS011;1738;49.500;17.736;2023-07-13T15:02:46;4.57;;;2.73;;
3447;SDS011;1738;49.500;17.736;2023-07-13T15:05:14;4.13;;;2.57;;
3447;SDS011;1738;49.500;17.736;2023-07-13T15:07:39;3.73;;;2.77;;
3447;SDS011;1738;49.500;17.736;2023-07-13T15:10:13;3.90;;;2.20;;
3447;SDS011;1738;49.500;17.736;2023-07-13T15:12:38;3.63;;;2.83;;